createdAt,value
2018-08-23T00:00:03.536Z,71.08
2018-08-23T00:02:32.917Z,69.44
2018-08-23T00:05:00.132Z,68.71
2018-08-23T00:07:27.285Z,70.47
2018-08-23T00:09:54.404Z,69.78
2018-08-23T00:12:26.993Z,69.59
2018-08-23T00:14:54.170Z,69.93
2018-08-23T00:17:21.268Z,72.43
2018-08-23T00:19:48.428Z,70.94
2018-08-23T00:22:21.282Z,71.84
2018-08-23T00:24:48.387Z,69.05
2018-08-23T00:27:20.098Z,68.12
2018-08-23T00:29:47.241Z,68.43
2018-08-23T00:32:21.164Z,68.10
2018-08-23T00:34:48.294Z,69.59
2018-08-23T00:37:15.420Z,70.00
2018-08-23T00:39:42.585Z,72.21
2018-08-23T00:42:11.195Z,72.73
2018-08-23T00:44:57.264Z,71.29
2018-08-23T00:47:30.381Z,69.96
2018-08-23T00:49:57.549Z,69.32
2018-08-23T00:52:44.561Z,68.47
2018-08-23T00:55:31.200Z,72.04
2018-08-23T00:57:58.492Z,70.89
2018-08-23T01:00:27.578Z,70.08
2018-08-23T01:03:00.600Z,70.35
2018-08-23T01:05:33.488Z,68.79
2018-08-23T01:08:00.623Z,71.28
2018-08-23T01:10:27.729Z,73.24
2018-08-23T01:12:57.072Z,71.19
2018-08-23T01:15:24.241Z,70.33
2018-08-23T01:18:04.305Z,69.87
2018-08-23T01:20:31.515Z,72.23
2018-08-23T01:23:00.632Z,75.51
2018-08-23T01:25:30.947Z,75.06
2018-08-23T01:27:58.065Z,74.35
2018-08-23T01:30:25.200Z,72.81
2018-08-23T01:32:52.355Z,72.70
2018-08-23T01:35:19.527Z,73.70
2018-08-23T01:37:46.689Z,73.83
2018-08-23T01:40:13.840Z,72.57
2018-08-23T01:42:41.628Z,72.88
2018-08-23T01:45:10.201Z,74.93
2018-08-23T01:48:11.000Z,73.72
2018-08-23T01:50:38.226Z,72.23
2018-08-23T01:53:05.460Z,71.90
2018-08-23T01:55:32.608Z,72.18
2018-08-23T01:57:59.812Z,71.72
2018-08-23T02:00:29.066Z,71.35
2018-08-23T02:02:56.186Z,71.90
2018-08-23T02:05:23.413Z,74.50
2018-08-23T02:07:50.591Z,74.88
2018-08-23T02:10:17.773Z,75.31
2018-08-23T02:12:52.916Z,75.92
2018-08-23T02:15:20.294Z,75.72
2018-08-23T02:17:52.823Z,76.40
2018-08-23T02:20:20.555Z,76.90
2018-08-23T02:22:47.724Z,74.85
2018-08-23T02:25:14.863Z,74.16
2018-08-23T02:27:56.668Z,73.35
2018-08-23T02:30:38.618Z,72.83
2018-08-23T02:33:05.789Z,73.43
2018-08-23T02:35:32.943Z,73.74
2018-08-23T02:38:00.127Z,77.31
2018-08-23T02:40:27.249Z,75.27
2018-08-23T02:42:54.384Z,75.54
2018-08-23T02:45:21.611Z,74.62
2018-08-23T02:47:48.748Z,75.31
2018-08-23T02:50:15.921Z,75.09
2018-08-23T02:52:43.072Z,74.23
2018-08-23T02:55:10.193Z,73.70
2018-08-23T02:57:41.908Z,74.69
2018-08-23T03:00:09.055Z,76.14
2018-08-23T03:02:36.300Z,74.84
2018-08-23T03:05:04.491Z,76.39
2018-08-23T03:07:31.648Z,76.30
2018-08-23T03:09:58.820Z,75.00
2018-08-23T03:12:25.966Z,75.24
2018-08-23T03:14:53.105Z,77.11
2018-08-23T03:17:22.500Z,78.45
2018-08-23T03:20:25.413Z,79.78
2018-08-23T03:22:54.746Z,76.78
2018-08-23T03:25:23.042Z,77.08
2018-08-23T03:27:51.836Z,76.48
2018-08-23T03:30:19.508Z,76.77
2018-08-23T03:32:46.631Z,76.16
2018-08-23T03:35:13.756Z,75.86
2018-08-23T03:37:40.905Z,75.30
2018-08-23T03:40:09.017Z,74.20
2018-08-23T03:42:36.140Z,75.91
2018-08-23T03:45:04.206Z,76.16
2018-08-23T03:47:38.494Z,75.64
2018-08-23T03:50:06.549Z,78.22
2018-08-23T03:52:37.674Z,78.21
2018-08-23T03:55:06.306Z,76.76
2018-08-23T03:57:39.062Z,76.13
2018-08-23T04:00:06.207Z,76.02
2018-08-23T04:02:33.397Z,76.50
2018-08-23T04:05:10.409Z,76.41
2018-08-23T04:07:38.613Z,75.21
2018-08-23T04:10:05.813Z,74.61
2018-08-23T04:12:34.769Z,75.58
2018-08-23T04:15:14.417Z,76.34
2018-08-23T04:17:41.528Z,76.78
2018-08-23T04:20:08.692Z,76.83
2018-08-23T04:22:35.821Z,78.16
2018-08-23T04:25:03.414Z,77.55
2018-08-23T04:27:30.573Z,77.20
2018-08-23T04:29:57.717Z,77.84
2018-08-23T04:32:30.576Z,81.14
2018-08-23T04:34:59.211Z,81.59
2018-08-23T04:37:26.808Z,78.80
2018-08-23T04:39:59.444Z,78.95
2018-08-23T04:42:26.616Z,79.21
2018-08-23T04:44:53.732Z,79.87
2018-08-23T04:47:21.620Z,80.19
2018-08-23T04:49:48.748Z,78.47
2018-08-23T04:52:15.921Z,77.40
2018-08-23T04:54:43.066Z,77.38
2018-08-23T04:57:10.349Z,75.78
2018-08-23T04:59:37.497Z,76.76
2018-08-23T05:02:04.845Z,76.99
2018-08-23T05:04:32.032Z,76.38
2018-08-23T05:06:59.169Z,75.28
2018-08-23T05:09:26.292Z,74.21
2018-08-23T05:11:53.476Z,73.91
2018-08-23T05:14:20.616Z,73.03
2018-08-23T05:16:47.733Z,72.02
2018-08-23T05:19:14.958Z,73.48
2018-08-23T05:21:42.089Z,72.50
2018-08-23T05:24:11.651Z,72.83
2018-08-23T05:26:38.891Z,72.47
2018-08-23T05:29:07.355Z,72.20
2018-08-23T05:31:34.581Z,72.18
2018-08-23T05:34:02.935Z,71.73
2018-08-23T05:36:30.237Z,73.18
2018-08-23T05:38:57.427Z,74.00
2018-08-23T05:41:24.568Z,74.74
2018-08-23T05:44:10.744Z,74.12
2018-08-23T05:46:40.663Z,72.44
2018-08-23T05:49:07.776Z,71.44
2018-08-23T05:51:38.952Z,71.47
2018-08-23T05:54:06.136Z,71.21
2018-08-23T05:56:33.332Z,71.03
2018-08-23T05:59:06.304Z,70.25
2018-08-23T06:01:33.516Z,70.23
2018-08-23T06:04:00.649Z,68.74
2018-08-23T06:06:28.384Z,68.85
2018-08-23T06:08:59.361Z,68.90
2018-08-23T06:11:26.529Z,69.01
2018-08-23T06:13:53.633Z,67.38
2018-08-23T06:16:20.737Z,68.15
2018-08-23T06:18:54.691Z,67.41
2018-08-23T06:21:21.862Z,67.17
2018-08-23T06:23:51.972Z,66.71
2018-08-23T06:26:19.963Z,66.00
2018-08-23T06:28:47.160Z,64.42
2018-08-23T06:31:14.289Z,63.57
2018-08-23T06:33:47.274Z,63.53
2018-08-23T06:36:14.286Z,63.62
2018-08-23T06:38:46.025Z,63.72
2018-08-23T06:41:13.105Z,63.08
2018-08-23T06:43:40.262Z,62.46
2018-08-23T06:46:07.471Z,62.56
2018-08-23T06:48:34.541Z,61.29
2018-08-23T06:51:02.691Z,60.28
2018-08-23T06:53:39.392Z,59.38
2018-08-23T06:56:06.546Z,58.86
2018-08-23T06:58:33.810Z,59.70
2018-08-23T07:01:03.356Z,58.83
2018-08-23T07:03:30.575Z,58.52
2018-08-23T07:05:57.768Z,58.06
2018-08-23T07:08:24.910Z,55.74
2018-08-23T07:11:00.268Z,55.54
2018-08-23T07:13:27.416Z,54.71
2018-08-23T07:15:59.069Z,54.68
2018-08-23T07:18:26.549Z,52.39
2018-08-23T07:20:53.655Z,51.48
2018-08-23T07:23:30.300Z,51.94
2018-08-23T07:25:57.441Z,52.67
2018-08-23T07:28:24.592Z,51.43
2018-08-23T07:30:53.108Z,48.64
2018-08-23T07:33:20.269Z,48.18
2018-08-23T07:35:53.276Z,48.39
2018-08-23T07:38:20.419Z,47.97
2018-08-23T07:40:47.608Z,47.37
2018-08-23T07:43:14.784Z,47.54
2018-08-23T07:45:41.950Z,47.11
2018-08-23T07:48:09.128Z,46.17
2018-08-23T07:50:36.316Z,46.09
2018-08-23T07:53:03.486Z,46.21
2018-08-23T07:55:30.636Z,45.58
2018-08-23T07:57:57.758Z,45.67
2018-08-23T08:00:25.680Z,45.74
2018-08-23T08:02:52.950Z,44.31
2018-08-23T08:05:20.141Z,43.92
2018-08-23T08:07:47.490Z,43.29
2018-08-23T08:10:21.468Z,43.11
2018-08-23T08:12:48.616Z,42.39
2018-08-23T08:15:15.936Z,43.52
2018-08-23T08:17:42.949Z,43.60
2018-08-23T08:20:10.413Z,42.58
2018-08-23T08:22:37.627Z,42.78
2018-08-23T08:25:19.873Z,42.36
2018-08-23T08:27:48.148Z,42.49
2018-08-23T08:30:16.772Z,41.59
2018-08-23T08:32:44.312Z,40.98
2018-08-23T08:35:15.380Z,40.70
2018-08-23T08:37:42.896Z,40.65
2018-08-23T08:40:18.714Z,40.53
2018-08-23T08:42:45.868Z,39.96
2018-08-23T08:45:13.376Z,40.02
2018-08-23T08:47:41.971Z,39.63
2018-08-23T08:50:09.179Z,39.53
2018-08-23T08:52:36.313Z,38.03
2018-08-23T08:55:05.788Z,38.75
2018-08-23T08:57:32.922Z,38.83
2018-08-23T09:00:00.698Z,39.22
2018-08-23T09:02:30.081Z,38.78
2018-08-23T09:04:57.168Z,37.87
2018-08-23T09:07:27.536Z,38.09
2018-08-23T09:09:54.678Z,37.66
2018-08-23T09:12:21.861Z,35.76
2018-08-23T09:14:49.029Z,35.76
2018-08-23T09:17:33.281Z,35.80
2018-08-23T09:20:06.293Z,35.92
2018-08-23T09:22:36.360Z,34.69
2018-08-23T09:25:05.572Z,35.22
2018-08-23T09:27:32.697Z,35.33
2018-08-23T09:29:59.832Z,35.05
2018-08-23T09:32:28.149Z,35.22
2018-08-23T09:34:57.295Z,34.30
2018-08-23T09:37:24.521Z,34.39
2018-08-23T09:39:51.693Z,33.56
2018-08-23T09:42:18.839Z,32.95
2018-08-23T09:44:59.181Z,32.61
2018-08-23T09:47:26.478Z,32.61
2018-08-23T09:49:53.596Z,33.06
2018-08-23T09:52:25.046Z,33.55
2018-08-23T09:54:52.136Z,33.87
2018-08-23T09:57:19.266Z,33.58
2018-08-23T09:59:50.978Z,32.95
2018-08-23T10:02:23.896Z,32.88
2018-08-23T10:04:55.082Z,33.05
2018-08-23T10:07:28.928Z,32.50
2018-08-23T10:10:01.770Z,32.28
2018-08-23T10:12:34.753Z,32.69
2018-08-23T10:15:07.765Z,32.50
2018-08-23T10:17:40.531Z,32.71
2018-08-23T10:20:13.492Z,32.75
2018-08-23T10:22:45.548Z,32.53
2018-08-23T10:25:30.226Z,32.43
2018-08-23T10:27:58.080Z,33.20
2018-08-23T10:30:25.769Z,32.44
2018-08-23T10:32:53.085Z,33.30
2018-08-23T10:35:20.262Z,32.02
2018-08-23T10:37:47.401Z,31.98
2018-08-23T10:40:14.618Z,30.62
2018-08-23T10:42:41.755Z,30.48
2018-08-23T10:45:08.876Z,30.76
2018-08-23T10:47:41.745Z,30.97
2018-08-23T10:50:08.920Z,31.25
2018-08-23T10:52:36.133Z,32.40
2018-08-23T10:55:03.856Z,33.02
2018-08-23T10:57:31.133Z,33.06
2018-08-23T10:59:58.473Z,33.04
2018-08-23T11:02:25.680Z,34.26
2018-08-23T11:04:52.829Z,34.42
2018-08-23T11:07:24.546Z,34.60
2018-08-23T11:09:57.521Z,35.97
2018-08-23T11:12:30.513Z,42.16
2018-08-23T11:15:03.247Z,40.74
2018-08-23T11:17:36.025Z,46.52
2018-08-23T11:20:09.385Z,52.94
2018-08-23T11:22:36.569Z,53.51
2018-08-23T11:25:04.304Z,52.45
2018-08-23T11:27:31.580Z,53.89
2018-08-23T11:29:58.775Z,53.54
2018-08-23T11:32:25.955Z,55.27
2018-08-23T11:34:53.104Z,57.05
2018-08-23T11:37:20.307Z,57.12
2018-08-23T11:39:47.424Z,58.33
2018-08-23T11:42:14.614Z,56.32
2018-08-23T11:44:41.772Z,55.11
2018-08-23T11:47:09.446Z,52.88
2018-08-23T11:49:37.133Z,63.78
2018-08-23T11:52:04.317Z,63.04
2018-08-23T11:54:40.024Z,63.38
2018-08-23T11:57:07.200Z,64.40
2018-08-23T11:59:34.348Z,63.30
2018-08-23T12:02:01.568Z,63.22
2018-08-23T12:04:28.730Z,55.92
2018-08-23T12:06:56.027Z,56.38
2018-08-23T12:09:38.473Z,50.25
2018-08-23T12:12:05.633Z,50.42
2018-08-23T12:14:32.813Z,51.96
2018-08-23T12:17:01.058Z,48.81
2018-08-23T12:19:28.195Z,49.26
2018-08-23T12:21:55.365Z,50.19
2018-08-23T12:24:22.551Z,49.93
2018-08-23T12:26:49.698Z,49.85
2018-08-23T12:29:16.864Z,49.76
2018-08-23T12:31:44.075Z,50.38
2018-08-23T12:34:12.288Z,50.73
2018-08-23T12:36:45.551Z,51.69
2018-08-23T12:39:18.661Z,50.89
2018-08-23T12:41:52.236Z,51.45
2018-08-23T12:44:23.753Z,51.28
2018-08-23T12:46:56.162Z,51.30
2018-08-23T12:49:23.352Z,52.04
2018-08-23T12:51:50.432Z,51.55
2018-08-23T12:54:17.652Z,51.04
2018-08-23T12:56:45.000Z,51.60
2018-08-23T12:59:12.956Z,51.62
2018-08-23T13:01:40.160Z,51.72
2018-08-23T13:04:07.379Z,51.65
2018-08-23T13:06:34.669Z,50.54
2018-08-23T13:09:01.886Z,51.15
2018-08-23T13:11:29.133Z,50.54
2018-08-23T13:13:56.316Z,50.32
2018-08-23T13:16:23.444Z,49.20
2018-08-23T13:18:52.294Z,49.03
2018-08-23T13:21:19.505Z,48.90
2018-08-23T13:23:53.604Z,48.47
2018-08-23T13:26:20.820Z,47.63
2018-08-23T13:28:48.036Z,46.91
2018-08-23T13:33:49.192Z,46.81
2018-08-23T13:36:16.558Z,47.49
2018-08-23T13:38:43.680Z,46.40
2018-08-23T13:41:10.836Z,45.89
2018-08-23T13:43:38.246Z,46.53
2018-08-23T13:46:05.472Z,45.92
2018-08-23T13:48:33.273Z,45.37
2018-08-23T13:51:00.659Z,42.43
2018-08-23T13:53:27.795Z,43.72
2018-08-23T13:55:54.970Z,43.73
2018-08-23T13:58:22.163Z,44.90
2018-08-23T14:00:49.366Z,47.56
2018-08-23T14:03:16.529Z,45.82
2018-08-23T14:05:43.729Z,49.13
2018-08-23T14:08:10.850Z,48.92
2018-08-23T14:10:38.000Z,47.30
2018-08-23T14:13:05.109Z,48.32
2018-08-23T14:15:38.012Z,49.23
2018-08-23T14:18:05.209Z,47.86
2018-08-23T14:20:32.419Z,48.80
2018-08-23T14:22:59.570Z,51.51
2018-08-23T14:25:26.727Z,47.92
2018-08-23T14:27:54.086Z,50.66
2018-08-23T14:30:21.513Z,49.89
2018-08-23T14:32:55.498Z,49.35
2018-08-23T14:35:22.600Z,46.76
2018-08-23T14:37:49.754Z,46.46
2018-08-23T14:40:16.973Z,45.34
2018-08-23T14:42:44.062Z,45.02
2018-08-23T14:45:11.174Z,45.87
2018-08-23T14:47:43.916Z,46.08
2018-08-23T14:50:11.165Z,44.99
2018-08-23T14:52:38.381Z,45.07
2018-08-23T14:55:05.614Z,45.30
2018-08-23T14:57:36.899Z,44.53
2018-08-23T15:00:04.621Z,44.67
2018-08-23T15:02:31.748Z,44.56
2018-08-23T15:04:58.894Z,44.85
2018-08-23T15:07:26.029Z,45.48
2018-08-23T15:09:53.166Z,45.76
2018-08-23T15:12:20.310Z,44.67
2018-08-23T15:14:47.470Z,44.84
2018-08-23T15:17:14.764Z,46.47
2018-08-23T15:19:41.926Z,46.31
2018-08-23T15:22:09.486Z,43.64
2018-08-23T15:24:36.686Z,42.55
2018-08-23T15:27:04.376Z,42.16
2018-08-23T15:29:31.380Z,43.50
2018-08-23T15:31:58.521Z,44.38
2018-08-23T15:34:25.655Z,43.23
2018-08-23T15:36:52.802Z,44.50
2018-08-23T15:39:20.051Z,45.19
2018-08-23T15:41:47.237Z,43.84
2018-08-23T15:44:14.405Z,44.29
2018-08-23T15:46:45.825Z,43.66
2018-08-23T15:49:13.368Z,44.50
2018-08-23T15:51:41.232Z,44.46
2018-08-23T15:54:08.824Z,44.66
2018-08-23T15:56:36.387Z,44.35
2018-08-23T15:59:03.629Z,45.40
2018-08-23T16:01:31.081Z,45.07
2018-08-23T16:03:58.268Z,44.12
2018-08-23T16:06:25.777Z,45.62
2018-08-23T16:08:53.013Z,46.07
2018-08-23T16:24:19.932Z,46.93
2018-08-23T16:27:04.064Z,45.17
2018-08-23T16:29:31.496Z,45.03
2018-08-23T16:31:58.769Z,46.55
2018-08-23T16:34:26.481Z,44.66
2018-08-23T16:36:53.706Z,44.80
2018-08-23T16:39:21.157Z,44.55
2018-08-23T16:41:48.312Z,44.00
2018-08-23T16:44:15.474Z,46.39
2018-08-23T16:46:42.746Z,46.91
2018-08-23T16:49:09.961Z,45.69
2018-08-23T16:51:37.144Z,42.76
2018-08-23T16:54:04.360Z,42.76
2018-08-23T16:56:31.609Z,43.02
2018-08-23T16:58:58.831Z,43.65
2018-08-23T17:01:26.017Z,43.53
2018-08-23T17:03:54.454Z,44.04
2018-08-23T17:06:22.793Z,43.75
2018-08-23T17:08:50.059Z,44.14
2018-08-23T17:11:17.247Z,44.53
2018-08-23T17:13:44.424Z,43.54
2018-08-23T17:16:17.438Z,43.78
2018-08-23T17:18:44.641Z,43.80
2018-08-23T17:21:11.801Z,43.83
2018-08-23T17:23:39.005Z,43.78
2018-08-23T17:26:06.167Z,44.60
2018-08-23T17:28:33.316Z,44.58
2018-08-23T17:31:01.028Z,44.77
2018-08-23T17:33:28.245Z,45.13
2018-08-23T17:35:55.420Z,45.40
2018-08-23T17:38:22.640Z,48.68
2018-08-23T17:40:49.741Z,48.03
2018-08-23T17:43:16.903Z,50.00
2018-08-23T17:45:44.441Z,50.57
2018-08-23T17:48:11.601Z,50.67
2018-08-23T17:50:38.766Z,50.07
2018-08-23T17:53:06.013Z,50.40
2018-08-23T17:55:33.389Z,50.25
2018-08-23T17:58:00.554Z,51.04
2018-08-23T18:00:27.797Z,51.73
2018-08-23T18:02:55.033Z,51.90
2018-08-23T18:05:22.345Z,53.45
2018-08-23T18:07:49.554Z,53.48
2018-08-23T18:10:16.757Z,54.03
2018-08-23T18:12:43.956Z,52.89
2018-08-23T18:15:11.110Z,53.64
2018-08-23T18:17:38.978Z,53.09
2018-08-23T18:20:06.434Z,51.58
2018-08-23T18:22:33.749Z,51.58
2018-08-23T18:25:01.014Z,52.90
2018-08-23T18:27:28.171Z,54.10
2018-08-23T18:29:55.385Z,54.71
2018-08-23T18:32:22.628Z,56.48
2018-08-23T18:34:49.908Z,56.73
2018-08-23T18:37:17.096Z,56.94
2018-08-23T18:39:44.329Z,57.55
2018-08-23T18:42:11.576Z,57.40
2018-08-23T18:44:38.924Z,57.32
2018-08-23T18:47:06.193Z,57.83
2018-08-23T18:49:33.415Z,58.58
2018-08-23T18:52:00.666Z,58.54
2018-08-23T18:54:27.940Z,59.26
2018-08-23T18:57:03.140Z,60.09
2018-08-23T18:59:33.550Z,60.44
2018-08-23T19:02:01.169Z,61.04
2018-08-23T19:04:28.310Z,62.38
2018-08-23T19:06:55.483Z,61.90
2018-08-23T19:09:22.821Z,61.26
2018-08-23T19:11:49.988Z,60.62
2018-08-23T19:14:17.204Z,61.50
2018-08-23T19:16:50.108Z,63.23
2018-08-23T19:19:17.525Z,64.14
2018-08-23T19:21:44.756Z,64.35
2018-08-23T19:24:14.077Z,64.75
2018-08-23T19:26:41.320Z,63.84
2018-08-23T19:29:08.558Z,65.03
2018-08-23T19:31:43.162Z,65.07
2018-08-23T19:34:10.321Z,64.36
2018-08-23T19:36:37.537Z,64.11
2018-08-23T19:39:08.380Z,63.55
2018-08-23T19:41:35.768Z,62.92
2018-08-23T19:44:03.037Z,63.84
2018-08-23T19:46:35.923Z,64.45
2018-08-23T19:49:08.865Z,64.29
2018-08-23T19:51:36.136Z,63.93
2018-08-23T19:54:03.326Z,63.97
2018-08-23T19:56:30.569Z,64.25
2018-08-23T19:58:57.865Z,67.02
2018-08-23T20:01:25.086Z,68.11
2018-08-23T20:03:52.254Z,69.32
2018-08-23T20:06:20.225Z,68.45
2018-08-23T20:08:47.451Z,67.08
2018-08-23T20:11:14.637Z,66.93
2018-08-23T20:13:41.805Z,69.40
2018-08-23T20:16:09.026Z,70.59
2018-08-23T20:18:36.275Z,70.87
2018-08-23T20:21:03.498Z,69.48
2018-08-23T20:23:30.663Z,68.90
2018-08-23T20:25:57.897Z,68.19
2018-08-23T20:28:25.173Z,67.08
2018-08-23T20:30:52.428Z,67.68
2018-08-23T20:33:19.723Z,69.22
2018-08-23T20:35:47.020Z,68.44
2018-08-23T20:38:15.099Z,68.32
2018-08-23T20:40:42.323Z,68.20
2018-08-23T20:43:09.628Z,68.62
2018-08-23T20:45:36.881Z,67.71
2018-08-23T20:48:04.056Z,67.21
2018-08-23T20:50:31.339Z,67.65
2018-08-23T20:52:58.532Z,67.40
2018-08-23T20:55:25.693Z,67.25
2018-08-23T20:57:52.920Z,66.78
2018-08-23T21:00:20.170Z,67.92
2018-08-23T21:02:47.396Z,69.21
2018-08-23T21:05:15.248Z,68.60
2018-08-23T21:07:42.545Z,68.97
2018-08-23T21:10:09.799Z,69.03
2018-08-23T21:12:37.082Z,68.92
2018-08-23T21:15:04.588Z,68.96
2018-08-23T21:17:31.867Z,67.98
2018-08-23T21:19:58.996Z,68.32
2018-08-23T21:22:26.172Z,68.64
2018-08-23T21:24:53.341Z,68.64
2018-08-23T21:27:20.649Z,68.30
2018-08-23T21:29:47.895Z,66.35
2018-08-23T21:32:15.120Z,65.70
2018-08-23T21:34:51.960Z,65.75
2018-08-23T21:37:20.522Z,66.54
2018-08-23T21:39:48.839Z,66.61
2018-08-23T21:42:16.396Z,68.42
2018-08-23T21:44:43.764Z,68.53
2018-08-23T21:47:11.035Z,66.79
2018-08-23T21:49:38.174Z,66.43
2018-08-23T21:52:05.476Z,65.95
2018-08-23T21:54:32.945Z,65.70
2018-08-23T21:57:00.162Z,66.69
2018-08-23T21:59:27.421Z,68.98
2018-08-23T22:02:00.335Z,69.28
2018-08-23T22:04:27.560Z,68.72
2018-08-23T22:06:54.792Z,68.07
2018-08-23T22:09:22.349Z,67.66
2018-08-23T22:11:49.608Z,67.28
2018-08-23T22:14:16.980Z,66.23
2018-08-23T22:16:44.166Z,66.03
2018-08-23T22:19:11.370Z,66.98
2018-08-23T22:21:38.736Z,66.88
2018-08-23T22:24:05.954Z,68.43
2018-08-23T22:26:33.626Z,67.18
2018-08-23T22:29:00.924Z,67.45
2018-08-23T22:31:28.160Z,67.14
2018-08-23T22:33:55.347Z,68.04
2018-08-23T22:36:22.515Z,68.80
2018-08-23T22:38:49.692Z,66.91
2018-08-23T22:41:17.005Z,66.47
2018-08-23T22:43:44.206Z,66.78
2018-08-23T22:46:11.417Z,68.05
2018-08-23T22:48:38.638Z,68.11
2018-08-23T22:51:05.823Z,68.13
2018-08-23T22:53:32.998Z,67.37
2018-08-23T22:56:00.320Z,67.63
2018-08-23T22:58:27.790Z,70.11
2018-08-23T23:00:55.381Z,72.05
2018-08-23T23:03:28.396Z,72.65
2018-08-23T23:05:55.570Z,74.26
2018-08-23T23:08:22.865Z,76.32
2018-08-23T23:10:50.017Z,76.96
2018-08-23T23:13:17.233Z,77.30
2018-08-23T23:15:44.432Z,81.72
2018-08-23T23:18:11.584Z,81.46
2018-08-23T23:20:38.722Z,81.94
2018-08-23T23:23:05.978Z,84.04
2018-08-23T23:25:33.176Z,84.43
2018-08-23T23:28:00.382Z,84.49
2018-08-23T23:30:27.589Z,86.18
2018-08-23T23:32:54.772Z,86.23
2018-08-23T23:35:21.981Z,88.49
2018-08-23T23:37:49.181Z,88.99
2018-08-23T23:40:16.392Z,88.73
2018-08-23T23:42:50.704Z,87.45
2018-08-23T23:45:17.828Z,86.46
2018-08-23T23:47:45.175Z,85.77
2018-08-23T23:50:12.497Z,85.48
2018-08-23T23:52:39.620Z,87.92
2018-08-23T23:55:06.799Z,89.50
2018-08-23T23:57:33.950Z,88.62
